Time;durP1;ratioP1;P1;durP2;ratioP2;P2;SDS_P1;SDS_P2;PMS_P1;PMS_P2;Temp;Humidity;BMP_temperature;BMP_pressure;BME280_temperature;BME280_humidity;BME280_pressure;Samples;Min_cycle;Max_cycle;Signal;HPM_P1;HPM_P2
2023/06/02 00:01:02;;;;;;;7.75;1.98;;;16.30;95.00;;;;;;4971810;28;20042;-70
2023/06/02 00:03:37;;;;;;;5.72;2.20;;;16.20;95.60;;;;;;4981509;28;20097;-70
2023/06/02 00:06:09;;;;;;;5.07;2.10;;;16.20;96.30;;;;;;4972613;28;20116;-70
2023/06/02 00:08:38;;;;;;;5.60;2.20;;;16.10;97.00;;;;;;4981609;28;20037;-71
2023/06/02 00:11:05;;;;;;;3.83;2.28;;;16.00;97.60;;;;;;4956236;28;20038;-71
2023/06/02 00:13:30;;;;;;;7.07;2.78;;;16.00;98.10;;;;;;4968910;28;20422;-71
2023/06/02 00:15:56;;;;;;;8.68;2.20;;;16.00;98.60;;;;;;4971128;28;20031;-71
2023/06/02 00:18:22;;;;;;;3.55;2.10;;;15.80;99.40;;;;;;4979413;28;20031;-71
2023/06/02 00:20:49;;;;;;;6.78;2.60;;;15.80;99.90;;;;;;4990689;28;20058;-71
2023/06/02 00:23:15;;;;;;;3.65;2.30;;;15.70;99.90;;;;;;4962447;28;20039;-71
2023/06/02 00:25:41;;;;;;;3.70;1.75;;;15.60;99.90;;;;;;4990930;28;20042;-71
2023/06/02 00:28:07;;;;;;;4.65;2.30;;;15.50;99.90;;;;;;4981556;28;20114;-71
2023/06/02 00:30:36;;;;;;;4.28;2.33;;;15.50;99.90;;;;;;4976051;28;20031;-71
2023/06/02 00:33:03;;;;;;;6.03;2.40;;;15.50;99.90;;;;;;4966886;28;20121;-70
2023/06/02 00:35:29;;;;;;;3.38;1.85;;;15.40;99.90;;;;;;4992833;28;20054;-70
2023/06/02 00:37:55;;;;;;;9.02;2.58;;;15.40;99.90;;;;;;4984944;28;20070;-70
2023/06/02 00:40:22;;;;;;;6.22;2.58;;;15.30;99.90;;;;;;4991633;28;20113;-71
2023/06/02 00:42:48;;;;;;;2.83;1.58;;;15.20;99.90;;;;;;4968841;28;20106;-71
2023/06/02 00:45:16;;;;;;;4.65;2.30;;;15.10;99.90;;;;;;4990806;28;20084;-70
2023/06/02 00:47:42;;;;;;;5.30;2.17;;;15.10;99.90;;;;;;4969601;28;20022;-71
2023/06/02 00:50:08;;;;;;;4.30;2.40;;;15.00;99.90;;;;;;4989837;28;20532;-71
2023/06/02 00:52:34;;;;;;;4.90;2.13;;;15.00;99.90;;;;;;4987555;28;20558;-70
2023/06/02 00:55:04;;;;;;;4.38;2.20;;;14.90;99.90;;;;;;4979508;28;20122;-70
2023/06/02 00:57:33;;;;;;;5.05;2.72;;;14.90;99.90;;;;;;4981018;28;20022;-70
2023/06/02 01:00:01;;;;;;;4.90;2.58;;;14.70;99.90;;;;;;4987136;28;20023;-70
2023/06/02 01:02:26;;;;;;;7.15;2.75;;;14.60;99.90;;;;;;4971181;28;20494;-70
2023/06/02 01:04:57;;;;;;;6.10;2.35;;;14.50;99.90;;;;;;4960080;28;20034;-70
2023/06/02 01:07:24;;;;;;;4.53;2.33;;;14.50;99.90;;;;;;4965565;28;20031;-70
2023/06/02 01:09:56;;;;;;;4.22;1.98;;;14.40;99.90;;;;;;4947939;28;20082;-69
2023/06/02 01:12:23;;;;;;;6.40;2.22;;;14.40;99.90;;;;;;4972378;28;20125;-70
2023/06/02 01:14:49;;;;;;;5.18;2.03;;;14.30;99.90;;;;;;4965963;28;20019;-70
2023/06/02 01:17:17;;;;;;;5.88;2.38;;;14.20;99.90;;;;;;4980653;28;20030;-70
2023/06/02 01:19:49;;;;;;;3.80;1.88;;;14.10;99.90;;;;;;4985750;28;20509;-70
2023/06/02 01:22:23;;;;;;;4.53;2.15;;;14.10;99.90;;;;;;4972775;28;20501;-70
2023/06/02 01:24:50;;;;;;;8.48;3.25;;;14.20;99.90;;;;;;4954512;28;20074;-69
2023/06/02 01:27:16;;;;;;;4.78;2.55;;;14.20;99.90;;;;;;4980780;28;20034;-69
2023/06/02 01:29:44;;;;;;;9.43;2.78;;;14.10;99.90;;;;;;4968350;28;20030;-69
2023/06/02 01:32:29;;;;;;;6.35;2.80;;;14.10;99.90;;;;;;4956526;28;20041;-69
2023/06/02 01:35:06;;;;;;;6.35;2.53;;;13.90;99.90;;;;;;4980826;28;20042;-69
2023/06/02 01:37:37;;;;;;;4.43;2.17;;;13.90;99.90;;;;;;4987104;28;20034;-70
2023/06/02 01:40:05;;;;;;;4.07;2.20;;;13.90;99.90;;;;;;4970681;28;20030;-69
2023/06/02 01:42:33;;;;;;;5.10;2.47;;;13.90;99.90;;;;;;4963609;28;20037;-69
2023/06/02 01:45:00;;;;;;;6.05;2.60;;;13.90;99.90;;;;;;4970812;28;20137;-69
2023/06/02 01:47:26;;;;;;;5.57;2.25;;;13.80;99.90;;;;;;4962896;28;20118;-69
2023/06/02 01:49:51;;;;;;;3.58;1.98;;;13.70;99.90;;;;;;4965836;28;20121;-69
2023/06/02 01:52:17;;;;;;;6.80;2.22;;;13.60;99.90;;;;;;4980030;28;20027;-69
2023/06/02 01:54:44;;;;;;;10.98;3.45;;;13.70;99.90;;;;;;4968319;28;20211;-69
2023/06/02 01:57:10;;;;;;;4.05;2.15;;;13.70;99.90;;;;;;4971638;28;20065;-69
2023/06/02 01:59:36;;;;;;;3.80;1.98;;;13.70;99.90;;;;;;4967256;28;20398;-69
2023/06/02 02:02:02;;;;;;;5.22;2.33;;;13.50;99.90;;;;;;4989723;28;20042;-69
2023/06/02 02:04:29;;;;;;;4.75;2.05;;;13.40;99.90;;;;;;4967088;28;20038;-69
2023/06/02 02:06:55;;;;;;;4.13;2.08;;;13.40;99.90;;;;;;4989704;28;20033;-69
2023/06/02 02:09:21;;;;;;;7.47;2.80;;;13.40;99.90;;;;;;4966944;28;20030;-69
2023/06/02 02:11:47;;;;;;;4.88;2.63;;;13.40;99.90;;;;;;4970423;28;20070;-69
2023/06/02 02:14:13;;;;;;;5.72;1.98;;;13.30;99.90;;;;;;4949747;28;20061;-69
2023/06/02 02:16:49;;;;;;;7.35;3.05;;;13.30;99.90;;;;;;4957077;28;20106;-70
2023/06/02 02:19:16;;;;;;;4.22;2.25;;;13.20;99.90;;;;;;4984027;28;20113;-69
2023/06/02 02:21:42;;;;;;;4.80;2.22;;;13.10;99.90;;;;;;4989147;28;20045;-69
2023/06/02 02:24:09;;;;;;;2.78;1.50;;;13.20;99.90;;;;;;4966552;28;20118;-69
2023/06/02 02:29:04;;;;;;;3.25;1.60;;;13.20;99.90;;;;;;4951311;28;20053;-64
2023/06/02 02:31:30;;;;;;;3.97;2.15;;;13.20;99.90;;;;;;4969615;28;20031;-64
2023/06/02 02:33:56;;;;;;;4.68;2.83;;;13.10;99.90;;;;;;4959453;28;20042;-64
2023/06/02 02:36:22;;;;;;;4.03;2.28;;;13.10;99.90;;;;;;4970278;28;20153;-65
2023/06/02 02:38:47;;;;;;;8.23;2.50;;;13.00;99.90;;;;;;4957214;28;20035;-66
2023/06/02 02:41:14;;;;;;;5.38;1.92;;;13.00;99.90;;;;;;4967716;28;20069;-65
2023/06/02 02:43:40;;;;;;;4.50;1.77;;;12.90;99.90;;;;;;4961142;28;20376;-65
2023/06/02 02:46:05;;;;;;;6.32;3.17;;;12.80;99.90;;;;;;4967906;28;20174;-65
2023/06/02 02:48:33;;;;;;;4.22;1.92;;;12.90;99.90;;;;;;4959525;28;20035;-65
2023/06/02 02:50:58;;;;;;;4.28;2.45;;;12.90;99.90;;;;;;4965296;28;20042;-64
2023/06/02 02:53:29;;;;;;;4.88;2.33;;;12.80;99.90;;;;;;4963628;28;20047;-64
2023/06/02 02:55:56;;;;;;;6.75;2.42;;;12.70;99.90;;;;;;4966124;28;20035;-64
2023/06/02 02:58:22;;;;;;;6.53;2.05;;;12.70;99.90;;;;;;4960494;28;20034;-65
2023/06/02 03:00:48;;;;;;;4.03;2.08;;;12.80;99.90;;;;;;4963791;28;20034;-65
2023/06/02 03:03:13;;;;;;;2.17;1.23;;;12.70;99.90;;;;;;4961683;28;20031;-64
2023/06/02 03:05:41;;;;;;;4.97;2.58;;;12.70;99.90;;;;;;4963858;28;20203;-64
2023/06/02 03:08:09;;;;;;;4.03;1.77;;;12.70;99.90;;;;;;4965584;28;20394;-64
2023/06/02 03:10:36;;;;;;;3.08;1.75;;;12.70;99.90;;;;;;4963562;28;20486;-64
2023/06/02 03:13:02;;;;;;;7.88;2.03;;;12.60;99.90;;;;;;4965276;28;20039;-64
2023/06/02 03:15:27;;;;;;;3.63;1.95;;;12.50;99.90;;;;;;4963636;28;20097;-64
2023/06/02 03:17:55;;;;;;;4.78;2.00;;;12.50;99.90;;;;;;4965452;28;20043;-65
2023/06/02 03:20:21;;;;;;;3.08;1.85;;;12.50;99.90;;;;;;4962654;28;20034;-65
2023/06/02 03:22:47;;;;;;;5.18;2.20;;;12.50;99.90;;;;;;4965093;28;20548;-64
2023/06/02 03:25:13;;;;;;;3.33;1.75;;;12.50;99.90;;;;;;4962285;28;20030;-65
2023/06/02 03:27:39;;;;;;;3.60;1.77;;;12.50;99.90;;;;;;4961325;28;20031;-64
2023/06/02 03:30:06;;;;;;;6.53;2.50;;;12.50;99.90;;;;;;4958557;28;20035;-64
2023/06/02 03:32:33;;;;;;;3.50;2.05;;;12.40;99.90;;;;;;4964016;28;20098;-64
2023/06/02 03:34:58;;;;;;;4.65;2.13;;;12.50;99.90;;;;;;4962276;28;20031;-64
2023/06/02 03:37:24;;;;;;;4.95;2.30;;;12.50;99.90;;;;;;4964178;28;20070;-64
2023/06/02 03:39:50;;;;;;;3.13;1.92;;;12.30;99.90;;;;;;4978576;28;20375;-64
2023/06/02 03:42:15;;;;;;;4.53;2.65;;;12.30;99.90;;;;;;4961055;28;20107;-64
2023/06/02 03:44:41;;;;;;;4.57;2.28;;;12.40;99.90;;;;;;4963582;28;20039;-64
2023/06/02 03:47:07;;;;;;;5.03;2.40;;;12.30;99.90;;;;;;4965897;28;20086;-64
2023/06/02 03:49:36;;;;;;;4.50;2.30;;;12.40;99.90;;;;;;4963029;28;20038;-64
2023/06/02 03:52:02;;;;;;;3.63;2.05;;;12.40;99.90;;;;;;4966645;28;20082;-64
2023/06/02 03:54:28;;;;;;;5.38;2.67;;;12.50;99.90;;;;;;4961989;28;20023;-65
2023/06/02 03:56:54;;;;;;;3.03;1.80;;;12.40;99.90;;;;;;4967709;28;20031;-65
2023/06/02 03:59:20;;;;;;;4.50;2.53;;;12.40;99.90;;;;;;4959428;28;20454;-65
2023/06/02 04:01:46;;;;;;;6.07;2.25;;;12.40;99.90;;;;;;4968718;28;20038;-65
2023/06/02 04:04:12;;;;;;;3.58;1.65;;;12.40;99.90;;;;;;4961301;28;20372;-65
2023/06/02 04:06:41;;;;;;;6.53;2.33;;;12.40;99.90;;;;;;4973899;28;20407;-65
2023/06/02 04:09:12;;;;;;;5.68;2.67;;;12.40;99.90;;;;;;4958251;28;20042;-65
2023/06/02 04:11:38;;;;;;;3.03;2.10;;;12.50;99.90;;;;;;4973509;28;20104;-65
2023/06/02 04:14:04;;;;;;;5.78;1.88;;;12.40;99.90;;;;;;4959058;28;20501;-65
2023/06/02 04:16:30;;;;;;;3.88;2.08;;;12.30;99.90;;;;;;4973920;28;20482;-65
2023/06/02 04:18:56;;;;;;;4.18;2.30;;;12.30;99.90;;;;;;4959019;28;20042;-65
2023/06/02 04:21:21;;;;;;;7.38;2.92;;;12.30;99.90;;;;;;4972405;28;20039;-65
2023/06/02 04:23:47;;;;;;;4.68;1.90;;;12.40;99.90;;;;;;4959808;28;20039;-64
2023/06/02 04:26:13;;;;;;;2.60;1.67;;;12.40;99.90;;;;;;4971556;28;20093;-64
2023/06/02 04:28:39;;;;;;;2.70;1.80;;;12.40;99.90;;;;;;4964684;28;20120;-64
2023/06/02 04:31:07;;;;;;;10.57;2.50;;;12.30;99.90;;;;;;4969996;28;20027;-64
2023/06/02 04:33:33;;;;;;;6.53;2.20;;;12.30;99.90;;;;;;4965522;28;20110;-64
2023/06/02 04:35:59;;;;;;;5.10;2.83;;;12.30;99.90;;;;;;4959966;28;20139;-64
2023/06/02 04:38:25;;;;;;;8.00;2.20;;;12.30;99.90;;;;;;4956597;28;20043;-64
2023/06/02 04:40:51;;;;;;;5.90;2.38;;;12.40;99.90;;;;;;4955283;28;20043;-64
2023/06/02 04:43:16;;;;;;;4.00;1.77;;;12.40;99.90;;;;;;4960410;28;20042;-65
2023/06/02 04:45:45;;;;;;;6.05;3.00;;;12.50;99.90;;;;;;4974388;28;20109;-65
2023/06/02 04:48:11;;;;;;;8.07;2.58;;;12.50;99.90;;;;;;4962020;28;20038;-64
2023/06/02 04:50:38;;;;;;;5.53;2.03;;;12.60;99.90;;;;;;4972845;28;20398;-64
2023/06/02 04:53:04;;;;;;;4.70;2.60;;;12.60;99.90;;;;;;4960908;28;20123;-64
2023/06/02 04:55:29;;;;;;;4.20;2.72;;;12.60;99.90;;;;;;4971810;28;20113;-64
2023/06/02 04:57:56;;;;;;;6.00;2.90;;;12.60;99.90;;;;;;4962216;28;20035;-64
2023/06/02 05:00:22;;;;;;;5.55;2.78;;;12.70;99.90;;;;;;4963789;28;20436;-63
2023/06/02 05:02:48;;;;;;;5.15;2.58;;;12.70;99.90;;;;;;4959587;28;20031;-62
2023/06/02 05:05:13;;;;;;;4.13;2.60;;;12.50;99.90;;;;;;4969718;28;20042;-61
2023/06/02 05:07:39;;;;;;;15.10;2.80;;;12.60;99.90;;;;;;4958469;28;20038;-61
2023/06/02 05:10:06;;;;;;;6.78;2.50;;;12.60;99.90;;;;;;4952332;28;20257;-62
2023/06/02 05:12:31;;;;;;;3.78;2.53;;;12.60;99.90;;;;;;4949781;28;20050;-63
2023/06/02 05:14:57;;;;;;;8.65;2.45;;;12.60;99.90;;;;;;4958805;28;20470;-63
2023/06/02 05:17:29;;;;;;;6.45;2.53;;;12.70;99.90;;;;;;4960009;28;20111;-63
2023/06/02 05:19:55;;;;;;;5.30;2.97;;;12.70;99.90;;;;;;4966504;28;20038;-62
2023/06/02 05:22:22;;;;;;;4.97;2.47;;;12.70;99.90;;;;;;4968126;28;20118;-63
2023/06/02 05:24:48;;;;;;;6.10;2.75;;;12.80;99.90;;;;;;4963890;28;20050;-63
2023/06/02 05:27:13;;;;;;;4.28;2.42;;;12.80;99.90;;;;;;4965408;28;20031;-64
2023/06/02 05:29:39;;;;;;;6.07;2.67;;;12.90;99.90;;;;;;4967032;28;20043;-63
2023/06/02 05:32:07;;;;;;;9.27;1.92;;;12.90;99.90;;;;;;4961885;28;20062;-63
2023/06/02 05:34:33;;;;;;;6.07;2.22;;;12.80;99.90;;;;;;4966992;28;20027;-63
2023/06/02 05:37:00;;;;;;;5.25;2.30;;;12.80;99.90;;;;;;4962242;28;20134;-63
2023/06/02 05:39:26;;;;;;;7.22;2.30;;;13.00;99.90;;;;;;4968397;28;20026;-63
2023/06/02 05:41:52;;;;;;;4.00;2.22;;;13.00;99.90;;;;;;4956931;28;20043;-62
2023/06/02 05:44:17;;;;;;;10.60;2.88;;;13.00;99.90;;;;;;4959578;28;20042;-64
2023/06/02 05:46:43;;;;;;;3.40;2.25;;;13.50;99.90;;;;;;4969988;28;20030;-68
2023/06/02 05:49:09;;;;;;;4.68;2.45;;;13.90;99.90;;;;;;4956763;28;20078;-63
2023/06/02 05:51:35;;;;;;;15.05;3.33;;;14.10;99.90;;;;;;4964166;28;20030;-69
2023/06/02 05:54:01;;;;;;;4.57;1.30;;;14.50;99.90;;;;;;4960383;28;20035;-69
2023/06/02 05:56:27;;;;;;;5.18;2.35;;;14.80;99.90;;;;;;4961804;28;20037;-65
2023/06/02 05:58:52;;;;;;;7.00;3.00;;;15.20;99.90;;;;;;4962008;28;20447;-63
2023/06/02 06:01:18;;;;;;;6.15;2.70;;;15.10;99.90;;;;;;4957391;28;20023;-64
2023/06/02 06:03:44;;;;;;;6.00;2.50;;;15.00;99.90;;;;;;4957824;28;20057;-62
2023/06/02 06:06:09;;;;;;;5.07;2.50;;;14.50;99.90;;;;;;4961639;28;20039;-64
2023/06/02 06:08:35;;;;;;;3.90;2.33;;;14.40;99.90;;;;;;4967190;28;20125;-65
2023/06/02 06:11:02;;;;;;;10.40;2.50;;;14.20;99.90;;;;;;4961014;28;20035;-64
2023/06/02 06:13:28;;;;;;;7.50;2.58;;;14.30;99.90;;;;;;4968132;28;20540;-64
2023/06/02 06:15:54;;;;;;;3.72;2.40;;;14.40;99.90;;;;;;4960991;28;20087;-65
2023/06/02 06:18:19;;;;;;;7.00;3.30;;;14.20;99.90;;;;;;4947143;28;20570;-64
2023/06/02 06:20:45;;;;;;;5.25;2.17;;;14.40;99.90;;;;;;4960177;28;20109;-64
2023/06/02 06:23:14;;;;;;;4.85;2.00;;;14.40;99.90;;;;;;4944454;28;20050;-64
2023/06/02 06:25:40;;;;;;;5.57;2.75;;;14.40;99.90;;;;;;4974958;28;20159;-64
2023/06/02 06:28:06;;;;;;;4.05;1.98;;;14.70;99.90;;;;;;4966593;28;20129;-66
2023/06/02 06:30:32;;;;;;;4.57;2.60;;;14.80;99.90;;;;;;4960267;28;20051;-65
2023/06/02 06:32:59;;;;;;;5.18;2.22;;;14.90;99.90;;;;;;4958399;28;20117;-64
2023/06/02 06:35:25;;;;;;;5.53;2.33;;;14.90;99.90;;;;;;4952497;28;20533;-64
2023/06/02 06:37:51;;;;;;;5.10;2.28;;;14.80;99.90;;;;;;4935974;28;20535;-64
2023/06/02 06:40:17;;;;;;;5.93;2.50;;;14.90;99.90;;;;;;4949997;28;20101;-64
2023/06/02 06:42:43;;;;;;;3.38;1.83;;;14.60;99.90;;;;;;4959337;28;20039;-63
2023/06/02 06:45:10;;;;;;;7.40;2.70;;;14.70;99.90;;;;;;4972413;28;20533;-64
2023/06/02 06:47:36;;;;;;;3.83;2.65;;;14.90;99.90;;;;;;4962187;28;20031;-64
2023/06/02 06:50:01;;;;;;;6.28;2.20;;;14.90;99.90;;;;;;4966347;28;20042;-65
2023/06/02 06:52:27;;;;;;;6.35;2.15;;;14.80;99.90;;;;;;4962086;28;20067;-65
2023/06/02 06:54:53;;;;;;;4.47;2.30;;;14.80;99.90;;;;;;4967293;28;20490;-65
2023/06/02 06:57:19;;;;;;;5.50;2.35;;;14.80;99.90;;;;;;4958100;28;20023;-65
2023/06/02 06:59:49;;;;;;;7.63;2.13;;;14.80;99.90;;;;;;4968072;28;20106;-65
2023/06/02 07:02:15;;;;;;;8.40;2.20;;;14.90;99.90;;;;;;4960141;28;20023;-66
2023/06/02 07:04:41;;;;;;;7.95;2.88;;;15.00;99.90;;;;;;4970095;28;20027;-65
2023/06/02 07:07:07;;;;;;;6.55;2.17;;;15.10;99.90;;;;;;4958569;28;20039;-65
2023/06/02 07:09:33;;;;;;;12.88;2.33;;;14.90;99.90;;;;;;4969656;28;20035;-65
2023/06/02 07:11:59;;;;;;;6.68;2.42;;;15.10;99.90;;;;;;4957047;28;20394;-65
2023/06/02 07:14:27;;;;;;;6.20;2.97;;;15.20;99.90;;;;;;4952207;28;20023;-65
2023/06/02 07:16:54;;;;;;;4.95;2.30;;;15.20;99.90;;;;;;4958281;28;20039;-65
2023/06/02 07:19:21;;;;;;;4.72;2.17;;;15.30;99.90;;;;;;4941015;28;20496;-66
2023/06/02 07:21:47;;;;;;;4.68;1.75;;;15.20;99.90;;;;;;4956747;28;20047;-64
2023/06/02 07:24:13;;;;;;;7.70;2.40;;;15.30;99.90;;;;;;4967002;28;20062;-65
2023/06/02 07:26:42;;;;;;;7.65;2.35;;;15.20;99.90;;;;;;4960405;28;20062;-64
2023/06/02 07:29:08;;;;;;;7.25;2.17;;;15.20;99.90;;;;;;4967419;28;20483;-64
2023/06/02 07:31:33;;;;;;;4.10;2.25;;;15.30;99.90;;;;;;4961422;28;20086;-64
2023/06/02 07:33:59;;;;;;;7.85;3.00;;;15.40;99.90;;;;;;4966336;28;20085;-64
2023/06/02 07:36:25;;;;;;;3.92;1.83;;;15.40;99.90;;;;;;4963806;28;20564;-65
2023/06/02 07:38:52;;;;;;;4.45;2.05;;;15.50;99.90;;;;;;4957091;28;20043;-64
2023/06/02 07:41:18;;;;;;;7.65;2.60;;;15.60;99.90;;;;;;4955321;28;20031;-65
2023/06/02 07:43:45;;;;;;;8.15;2.83;;;15.70;99.90;;;;;;4966461;28;20046;-65
2023/06/02 07:46:10;;;;;;;5.88;2.80;;;15.80;99.90;;;;;;4965380;28;20126;-64
2023/06/02 07:48:36;;;;;;;6.57;2.53;;;15.70;99.90;;;;;;4965704;28;20113;-65
2023/06/02 07:51:03;;;;;;;7.10;2.72;;;15.80;99.90;;;;;;4967833;28;20065;-65
2023/06/02 07:53:29;;;;;;;4.50;2.15;;;15.80;99.90;;;;;;4965756;28;20063;-65
2023/06/02 07:55:56;;;;;;;9.93;2.50;;;16.00;99.90;;;;;;4965165;28;20479;-65
2023/06/02 07:58:22;;;;;;;5.50;2.85;;;16.10;99.90;;;;;;4957629;28;20035;-65
2023/06/02 08:00:49;;;;;;;7.72;2.42;;;16.00;99.90;;;;;;4965147;28;20487;-65
2023/06/02 08:03:14;;;;;;;5.43;2.33;;;16.10;99.90;;;;;;4960934;28;20035;-64
2023/06/02 08:05:40;;;;;;;7.63;1.80;;;15.80;99.90;;;;;;4966650;28;20446;-64
2023/06/02 08:08:06;;;;;;;3.90;2.05;;;16.00;99.90;;;;;;4968924;28;20087;-66
2023/06/02 08:10:32;;;;;;;5.25;2.78;;;16.20;99.90;;;;;;4965747;28;20460;-66
2023/06/02 08:12:58;;;;;;;5.38;2.50;;;16.20;99.90;;;;;;4970102;28;20038;-66
2023/06/02 08:15:23;;;;;;;5.82;2.65;;;16.50;99.90;;;;;;4962562;28;20039;-66
2023/06/02 08:17:49;;;;;;;12.23;2.67;;;16.50;99.90;;;;;;4972664;28;20038;-65
2023/06/02 08:20:18;;;;;;;4.85;2.72;;;16.80;99.90;;;;;;4960264;28;20027;-65
2023/06/02 08:22:47;;;;;;;4.90;2.17;;;16.80;99.80;;;;;;4972128;28;20093;-65
2023/06/02 08:25:15;;;;;;;10.90;2.53;;;16.70;99.60;;;;;;4962455;28;20483;-64
2023/06/02 08:27:44;;;;;;;6.20;2.50;;;16.80;99.50;;;;;;4997476;22;20122;-66
2023/06/02 08:30:12;;;;;;;5.53;2.65;;;17.00;99.30;;;;;;5020887;28;20026;-66
2023/06/02 08:32:38;;;;;;;2.85;1.80;;;16.90;99.60;;;;;;4993938;28;20030;-66
2023/06/02 08:35:05;;;;;;;3.95;2.20;;;17.00;98.90;;;;;;5003912;28;20088;-66
2023/06/02 08:37:32;;;;;;;5.72;2.83;;;17.10;98.70;;;;;;4992385;28;20080;-66
2023/06/02 08:39:58;;;;;;;6.00;2.22;;;17.20;98.50;;;;;;5012580;28;20037;-67
2023/06/02 08:42:26;;;;;;;4.60;2.05;;;17.30;98.60;;;;;;4991751;28;20026;-67
2023/06/02 08:44:52;;;;;;;3.85;2.28;;;17.30;98.50;;;;;;5013030;28;20032;-67
2023/06/02 08:47:27;;;;;;;8.07;2.50;;;17.20;98.50;;;;;;4990256;28;20030;-67
2023/06/02 08:49:53;;;;;;;5.90;2.38;;;17.10;98.90;;;;;;5013040;28;20504;-66
2023/06/02 08:52:22;;;;;;;7.47;3.20;;;17.30;98.90;;;;;;5001283;28;20038;-68
2023/06/02 08:54:49;;;;;;;4.32;2.55;;;17.50;97.90;;;;;;4978433;28;20496;-67
2023/06/02 08:57:16;;;;;;;5.10;2.15;;;17.50;97.80;;;;;;5008938;28;20427;-67
2023/06/02 08:59:46;;;;;;;5.07;2.58;;;17.40;98.00;;;;;;4994819;28;20087;-67
2023/06/02 09:02:13;;;;;;;7.25;2.88;;;17.70;97.70;;;;;;4991872;28;20045;-67
2023/06/02 09:04:39;;;;;;;5.10;2.20;;;17.80;97.50;;;;;;4979338;28;20022;-67
2023/06/02 09:07:18;;;;;;;5.65;2.03;;;18.00;97.60;;;;;;4992036;28;20512;-67
2023/06/02 09:09:47;;;;;;;5.82;1.98;;;18.30;97.10;;;;;;4980844;28;20030;-68
2023/06/02 09:12:14;;;;;;;5.38;2.47;;;18.30;96.90;;;;;;4973530;28;20754;-67
2023/06/02 09:14:40;;;;;;;5.57;2.17;;;18.40;96.60;;;;;;4987347;28;20029;-68
2023/06/02 09:17:27;;;;;;;5.13;1.83;;;18.50;96.30;;;;;;4991774;28;21558;-67
2023/06/02 09:19:56;;;;;;;8.38;2.53;;;18.40;96.50;;;;;;5001499;28;20060;-67
2023/06/02 09:22:22;;;;;;;4.85;2.00;;;18.30;96.30;;;;;;4995256;28;20038;-68
2023/06/02 09:24:48;;;;;;;7.50;2.50;;;18.40;96.00;;;;;;5012165;28;20112;-68
2023/06/02 09:27:16;;;;;;;5.20;2.17;;;18.60;95.80;;;;;;4990665;28;20480;-68
2023/06/02 09:29:44;;;;;;;4.07;1.70;;;18.70;95.30;;;;;;4989935;28;20049;-67
2023/06/02 09:32:16;;;;;;;7.50;2.75;;;18.80;95.10;;;;;;4991135;28;20029;-67
2023/06/02 09:34:43;;;;;;;3.92;2.35;;;19.00;95.10;;;;;;4979854;28;20036;-68
2023/06/02 09:37:17;;;;;;;4.22;2.20;;;19.10;95.00;;;;;;4956936;28;20517;-68
2023/06/02 09:39:48;;;;;;;6.80;2.95;;;18.70;95.00;;;;;;4979935;28;20026;-68
2023/06/02 09:42:21;;;;;;;5.97;2.55;;;18.80;95.20;;;;;;4990775;28;20035;-68
2023/06/02 09:45:08;;;;;;;7.35;2.30;;;18.90;95.10;;;;;;4995204;28;20506;-67
2023/06/02 09:47:40;;;;;;;8.98;2.22;;;19.30;94.70;;;;;;4991144;28;20046;-67
2023/06/02 09:50:07;;;;;;;6.50;2.15;;;19.50;94.30;;;;;;4994607;28;20057;-66
2023/06/02 09:52:33;;;;;;;3.92;1.92;;;19.60;94.20;;;;;;4990849;28;20041;-67
2023/06/02 09:55:06;;;;;;;4.70;2.08;;;19.60;94.20;;;;;;4978012;28;20033;-70
2023/06/02 09:57:32;;;;;;;6.47;1.80;;;19.60;94.10;;;;;;4972534;28;20113;-68
2023/06/02 09:59:59;;;;;;;3.63;2.00;;;19.80;94.10;;;;;;4993681;28;20033;-67
2023/06/02 10:02:25;;;;;;;3.53;2.25;;;19.80;93.60;;;;;;4990149;28;20034;-67
2023/06/02 10:04:50;;;;;;;6.38;2.20;;;19.80;93.20;;;;;;4994067;28;20083;-68
2023/06/02 10:07:45;;;;;;;4.45;2.15;;;19.80;93.50;;;;;;5007408;28;20398;-69
2023/06/02 10:10:28;;;;;;;5.55;2.10;;;19.80;93.20;;;;;;5011361;28;20056;-67
2023/06/02 10:13:20;;;;;;;4.25;1.73;;;20.10;92.90;;;;;;5006951;28;20038;-67
2023/06/02 10:16:25;;;;;;;4.53;1.80;;;20.20;92.70;;;;;;4997333;28;20037;-68
2023/06/02 10:19:31;;;;;;;5.53;1.85;;;20.40;92.90;;;;;;5007115;28;20034;-68
2023/06/02 10:22:20;;;;;;;4.97;1.73;;;20.60;91.60;;;;;;4956408;28;20058;-68
2023/06/02 10:25:10;;;;;;;6.65;3.00;;;20.80;92.10;;;;;;4988015;28;20041;-67
2023/06/02 10:27:40;;;;;;;5.35;1.98;;;20.80;92.20;;;;;;5007163;28;20091;-67
2023/06/02 10:30:07;;;;;;;2.47;1.33;;;21.20;91.60;;;;;;4993792;28;20029;-68
2023/06/02 10:32:45;;;;;;;5.82;2.15;;;21.10;91.50;;;;;;5006446;28;20285;-67
2023/06/02 10:35:11;;;;;;;4.88;2.28;;;20.70;91.30;;;;;;4993621;28;20022;-66
2023/06/02 10:37:39;;;;;;;3.10;1.90;;;21.00;91.70;;;;;;4990222;28;20034;-67
2023/06/02 10:40:06;;;;;;;2.65;1.45;;;20.80;91.70;;;;;;4993860;28;20601;-67
2023/06/02 10:42:31;;;;;;;4.70;1.65;;;21.00;91.20;;;;;;5006578;28;20034;-67
2023/06/02 10:45:27;;;;;;;6.22;1.88;;;21.00;91.00;;;;;;5009588;28;20389;-67
2023/06/02 10:47:52;;;;;;;3.35;1.83;;;21.00;90.70;;;;;;5006860;28;20099;-67
2023/06/02 10:50:24;;;;;;;2.72;1.55;;;21.20;90.90;;;;;;5009544;28;20030;-67
2023/06/02 10:52:59;;;;;;;4.18;2.28;;;21.30;90.40;;;;;;4990023;28;20037;-67
2023/06/02 10:55:30;;;;;;;3.78;2.15;;;21.00;90.50;;;;;;5010774;28;20036;-66
2023/06/02 10:58:02;;;;;;;2.92;1.80;;;21.10;90.70;;;;;;4990020;28;20809;-67
2023/06/02 11:00:39;;;;;;;7.47;2.20;;;21.10;91.10;;;;;;4992820;28;20030;-67
2023/06/02 11:03:27;;;;;;;4.93;1.60;;;21.30;90.70;;;;;;5006820;28;20036;-67
2023/06/02 11:06:20;;;;;;;4.60;1.92;;;21.50;90.10;;;;;;4998332;28;20030;-66
2023/06/02 11:08:47;;;;;;;4.65;2.25;;;21.80;89.40;;;;;;4990450;28;20049;-67
2023/06/02 11:11:50;;;;;;;4.28;1.52;;;22.00;88.50;;;;;;4974601;28;20114;-66
2023/06/02 11:14:16;;;;;;;3.72;2.55;;;21.70;88.80;;;;;;4979992;28;20034;-67
2023/06/02 11:16:41;;;;;;;3.42;1.77;;;22.00;88.30;;;;;;4958232;28;20126;-67
2023/06/02 11:19:07;;;;;;;4.68;2.00;;;21.70;87.90;;;;;;4985886;28;20034;-68
2023/06/02 11:21:33;;;;;;;5.05;1.35;;;22.10;87.50;;;;;;4982953;28;20062;-66
2023/06/02 11:23:59;;;;;;;4.20;1.83;;;22.10;86.70;;;;;;4988407;28;20034;-67
2023/06/02 11:26:25;;;;;;;6.45;1.83;;;22.40;85.70;;;;;;4993109;28;20034;-66
2023/06/02 11:28:51;;;;;;;5.72;1.70;;;21.70;86.90;;;;;;5006373;28;20099;-67
2023/06/02 11:31:19;;;;;;;5.95;1.30;;;22.30;85.90;;;;;;4992745;28;20030;-67
2023/06/02 11:33:48;;;;;;;6.53;1.58;;;22.30;85.80;;;;;;5006167;28;20030;-67
2023/06/02 11:36:16;;;;;;;6.70;2.88;;;22.50;85.60;;;;;;5010313;28;20563;-68
2023/06/02 11:38:43;;;;;;;4.80;1.65;;;22.90;84.80;;;;;;4989658;28;20121;-68
2023/06/02 11:41:21;;;;;;;3.13;1.55;;;22.50;84.30;;;;;;4992222;28;20104;-67
2023/06/02 11:43:50;;;;;;;13.55;2.08;;;23.00;84.60;;;;;;4988793;28;20065;-68
2023/06/02 11:46:19;;;;;;;6.95;1.63;;;23.00;82.60;;;;;;4993038;28;20044;-68
2023/06/02 11:48:46;;;;;;;4.03;1.70;;;23.20;82.70;;;;;;4989321;28;20121;-67
2023/06/02 11:51:16;;;;;;;4.80;1.50;;;22.90;83.00;;;;;;5009977;28;20513;-68
2023/06/02 11:53:45;;;;;;;4.20;1.40;;;23.40;83.30;;;;;;5006056;28;20040;-69
2023/06/02 11:56:13;;;;;;;2.28;1.30;;;23.60;81.50;;;;;;4993504;28;20040;-68
2023/06/02 11:58:46;;;;;;;3.90;1.98;;;23.30;81.20;;;;;;5005438;28;20026;-67
2023/06/02 12:01:17;;;;;;;5.32;2.22;;;23.40;81.70;;;;;;5006364;28;20026;-68
2023/06/02 12:04:02;;;;;;;8.95;2.03;;;23.40;81.10;;;;;;4977526;28;20030;-68
2023/06/02 12:06:29;;;;;;;6.82;1.95;;;23.80;80.00;;;;;;5006983;28;20034;-67
2023/06/02 12:08:55;;;;;;;3.35;1.27;;;23.60;79.40;;;;;;4976299;28;20026;-68
2023/06/02 12:11:25;;;;;;;2.50;1.30;;;23.50;79.40;;;;;;4989185;28;20030;-67
2023/06/02 12:14:02;;;;;;;4.72;1.67;;;24.00;77.20;;;;;;4992280;28;20026;-67
2023/06/02 12:16:29;;;;;;;4.82;1.85;;;24.00;77.60;;;;;;4988900;28;20376;-67
2023/06/02 12:19:17;;;;;;;2.78;1.40;;;24.10;76.80;;;;;;4975926;28;20113;-68
2023/06/02 12:21:47;;;;;;;4.55;1.75;;;24.00;77.70;;;;;;5006334;28;20548;-67
2023/06/02 12:24:38;;;;;;;3.35;1.67;;;23.80;77.90;;;;;;4977357;28;20026;-69
2023/06/02 12:27:08;;;;;;;3.15;1.33;;;24.30;77.20;;;;;;4993694;28;20682;-68
2023/06/02 12:29:35;;;;;;;2.80;1.70;;;24.40;76.20;;;;;;4995794;28;20088;-68
2023/06/02 12:32:06;;;;;;;6.28;1.48;;;24.50;75.30;;;;;;4992273;28;20073;-69
2023/06/02 12:34:33;;;;;;;4.68;1.42;;;24.40;75.50;;;;;;4994790;28;20104;-68
2023/06/02 12:37:02;;;;;;;3.90;1.80;;;24.80;73.80;;;;;;4993330;28;20084;-69
2023/06/02 12:39:27;;;;;;;2.53;1.27;;;25.20;73.20;;;;;;4995455;28;20128;-68
2023/06/02 12:41:53;;;;;;;3.30;1.50;;;25.40;73.00;;;;;;5010049;28;20448;-69
2023/06/02 12:44:19;;;;;;;3.00;1.35;;;25.50;71.40;;;;;;5012972;28;20096;-68
2023/06/02 12:46:47;;;;;;;2.90;1.55;;;25.10;71.20;;;;;;5010131;28;20060;-68
2023/06/02 12:49:13;;;;;;;2.88;1.50;;;24.40;73.80;;;;;;5012920;28;20026;-68
2023/06/02 12:51:39;;;;;;;1.60;1.13;;;25.00;72.40;;;;;;5009322;28;20446;-71
2023/06/02 12:54:05;;;;;;;2.67;1.48;;;25.20;71.90;;;;;;4995320;28;20069;-68